createdAt,value
2022-09-13T00:02:36.280Z,11.20
2022-09-13T00:05:33.199Z,11.30
2022-09-13T00:08:30.095Z,11.30
2022-09-13T00:11:31.363Z,11.30
2022-09-13T00:14:28.542Z,11.40
2022-09-13T00:17:26.794Z,11.40
2022-09-13T00:20:24.027Z,11.20
2022-09-13T00:23:20.819Z,11.20
2022-09-13T00:26:25.368Z,11.00
2022-09-13T00:29:22.171Z,11.00
2022-09-13T00:32:19.035Z,11.10
2022-09-13T00:35:15.860Z,11.10
2022-09-13T00:38:12.669Z,11.10
2022-09-13T00:41:15.664Z,11.10
2022-09-13T00:44:57.628Z,10.90
2022-09-13T00:48:05.061Z,10.80
2022-09-13T00:51:04.453Z,10.80
2022-09-13T00:54:03.584Z,11.00
2022-09-13T00:57:03.963Z,11.10
2022-09-13T01:00:13.539Z,10.90
2022-09-13T01:03:13.823Z,10.80
2022-09-13T01:06:15.559Z,10.80
2022-09-13T01:09:13.093Z,10.80
2022-09-13T01:12:38.503Z,11.00
2022-09-13T01:15:35.301Z,10.90
2022-09-13T01:18:32.112Z,11.00
2022-09-13T01:22:07.220Z,10.90
2022-09-13T01:26:01.245Z,10.80
2022-09-13T01:29:22.030Z,10.90
2022-09-13T01:32:52.372Z,10.80
2022-09-13T01:36:14.582Z,10.70
2022-09-13T01:39:24.419Z,10.80
2022-09-13T01:43:04.537Z,10.80
2022-09-13T01:46:28.704Z,10.80
2022-09-13T01:49:45.807Z,10.50
2022-09-13T01:52:58.114Z,10.70
2022-09-13T01:56:29.469Z,11.00
2022-09-13T01:59:56.768Z,11.00
2022-09-13T02:03:19.384Z,10.80
2022-09-13T02:06:27.966Z,10.70
2022-09-13T02:09:30.233Z,10.70
2022-09-13T02:12:31.854Z,10.70
2022-09-13T02:15:39.010Z,10.60
2022-09-13T02:18:47.522Z,10.70
2022-09-13T02:21:49.528Z,10.80
2022-09-13T02:24:53.019Z,10.70
2022-09-13T02:27:54.505Z,10.60
2022-09-13T02:30:54.745Z,10.50
2022-09-13T02:34:02.060Z,10.50
2022-09-13T02:37:01.639Z,10.40
2022-09-13T02:40:05.608Z,10.40
2022-09-13T02:43:13.708Z,10.40
2022-09-13T02:46:44.772Z,10.40
2022-09-13T02:50:02.627Z,10.50
2022-09-13T02:53:44.071Z,10.60
2022-09-13T02:56:57.181Z,10.50
2022-09-13T02:59:54.064Z,10.40
2022-09-13T03:02:52.731Z,10.40
2022-09-13T03:05:49.627Z,10.50
2022-09-13T03:08:46.424Z,10.30
2022-09-13T03:12:41.315Z,10.30
2022-09-13T03:16:19.307Z,10.30
2022-09-13T03:19:48.172Z,10.30
2022-09-13T03:23:12.471Z,10.20
2022-09-13T03:26:36.980Z,10.10
2022-09-13T03:30:04.226Z,10.10
2022-09-13T03:33:28.346Z,10.10
2022-09-13T03:36:36.118Z,10.10
2022-09-13T03:39:46.718Z,10.10
2022-09-13T03:42:52.559Z,10.20
2022-09-13T03:45:58.676Z,10.10
2022-09-13T03:48:56.839Z,10.10
2022-09-13T03:51:54.188Z,10.10
2022-09-13T03:54:54.181Z,10.10
2022-09-13T03:57:50.967Z,10.10
2022-09-13T04:00:48.371Z,10.10
2022-09-13T04:03:45.265Z,10.10
2022-09-13T04:06:42.055Z,10.00
2022-09-13T04:09:39.669Z,10.10
2022-09-13T04:12:36.479Z,10.20
2022-09-13T04:15:33.656Z,10.20
2022-09-13T04:18:31.757Z,10.10
2022-09-13T04:21:28.597Z,10.10
2022-09-13T04:24:28.158Z,10.10
2022-09-13T04:27:25.790Z,10.00
2022-09-13T04:30:23.380Z,10.00
2022-09-13T04:33:20.213Z,10.20
2022-09-13T04:36:17.028Z,10.10
2022-09-13T04:39:15.069Z,10.20
2022-09-13T04:42:11.993Z,10.10
2022-09-13T04:45:09.678Z,10.20
2022-09-13T04:48:06.627Z,10.30
2022-09-13T04:51:05.033Z,10.30
2022-09-13T04:54:01.865Z,10.30
2022-09-13T04:56:58.662Z,10.30
2022-09-13T04:59:55.481Z,10.40
2022-09-13T05:02:56.733Z,10.40
2022-09-13T05:05:53.540Z,10.50
2022-09-13T05:08:55.588Z,10.50
2022-09-13T05:11:52.471Z,10.50
2022-09-13T05:14:49.338Z,10.50
2022-09-13T05:17:46.141Z,10.50
2022-09-13T05:20:43.027Z,10.60
2022-09-13T05:23:39.828Z,10.60
2022-09-13T05:26:36.745Z,10.70
2022-09-13T05:29:33.549Z,10.80
2022-09-13T05:32:32.176Z,10.80
2022-09-13T05:35:28.976Z,10.90
2022-09-13T05:38:26.393Z,10.90
2022-09-13T05:41:23.504Z,11.00
2022-09-13T05:44:20.313Z,11.10
2022-09-13T05:47:17.172Z,11.10
2022-09-13T05:50:32.018Z,11.20
2022-09-13T05:53:31.551Z,11.30
2022-09-13T05:56:30.025Z,11.30
2022-09-13T05:59:26.939Z,11.40
2022-09-13T06:02:23.915Z,11.50
2022-09-13T06:05:20.780Z,11.60
2022-09-13T06:08:17.745Z,11.60
2022-09-13T06:11:15.475Z,11.60
2022-09-13T06:14:12.353Z,11.60
2022-09-13T06:17:09.206Z,11.70
2022-09-13T06:20:06.681Z,11.70
2022-09-13T06:23:03.471Z,11.80
2022-09-13T06:26:27.847Z,11.80
2022-09-13T06:29:24.795Z,11.80
2022-09-13T06:32:24.683Z,11.90
2022-09-13T06:35:21.509Z,11.90
2022-09-13T06:38:18.332Z,12.00
2022-09-13T06:41:18.794Z,12.10
2022-09-13T06:44:15.625Z,12.20
2022-09-13T06:47:13.296Z,12.20
2022-09-13T06:50:10.357Z,12.20
2022-09-13T06:53:07.228Z,12.20
2022-09-13T06:56:15.509Z,12.20
2022-09-13T06:59:12.499Z,12.20
2022-09-13T07:02:10.919Z,12.20
2022-09-13T07:05:08.527Z,12.30
2022-09-13T07:08:05.325Z,12.30
2022-09-13T07:11:02.177Z,12.30
2022-09-13T07:14:02.863Z,12.40
2022-09-13T07:17:00.399Z,12.50
2022-09-13T07:19:57.221Z,12.50
2022-09-13T07:22:54.029Z,12.50
2022-09-13T07:25:55.964Z,12.50
2022-09-13T07:28:56.105Z,12.60
2022-09-13T07:31:54.774Z,12.60
2022-09-13T07:34:51.664Z,12.70
2022-09-13T07:37:48.458Z,12.70
2022-09-13T07:40:58.144Z,12.80
2022-09-13T07:43:55.753Z,12.80
2022-09-13T07:46:52.637Z,12.80
2022-09-13T07:49:50.714Z,12.80
2022-09-13T07:52:47.545Z,13.00
2022-09-13T07:55:44.349Z,13.00
2022-09-13T07:58:43.677Z,13.00
2022-09-13T08:01:44.122Z,13.10
2022-09-13T08:04:41.041Z,13.20
2022-09-13T08:07:37.834Z,13.30
2022-09-13T08:10:37.401Z,13.40
2022-09-13T08:13:34.591Z,13.50
2022-09-13T08:16:31.580Z,13.50
2022-09-13T08:19:28.446Z,13.50
2022-09-13T08:22:25.244Z,13.60
2022-09-13T08:25:23.581Z,13.60
2022-09-13T08:28:26.832Z,13.70
2022-09-13T08:31:26.545Z,13.70
2022-09-13T08:34:23.438Z,13.70
2022-09-13T08:37:20.242Z,13.80
2022-09-13T08:40:17.540Z,14.00
2022-09-13T08:43:51.217Z,14.20
2022-09-13T08:46:49.064Z,14.30
2022-09-13T08:49:51.823Z,14.40
2022-09-13T08:53:07.228Z,14.60
2022-09-13T08:56:13.029Z,14.60
2022-09-13T08:59:38.305Z,14.70
2022-09-13T09:03:28.846Z,14.80
2022-09-13T09:06:26.044Z,14.90
2022-09-13T09:09:23.218Z,15.00
2022-09-13T09:12:52.533Z,15.20
2022-09-13T09:15:59.868Z,15.40
2022-09-13T09:19:04.211Z,15.30
2022-09-13T09:22:07.228Z,15.30
2022-09-13T09:25:04.559Z,15.40
2022-09-13T09:28:06.461Z,15.50
2022-09-13T09:31:18.452Z,15.50
2022-09-13T09:34:32.514Z,15.60
2022-09-13T09:37:31.300Z,15.70
2022-09-13T09:40:31.715Z,15.80
2022-09-13T09:43:46.779Z,15.90
2022-09-13T09:46:47.228Z,16.00
2022-09-13T09:50:10.763Z,16.20
2022-09-13T09:53:17.027Z,16.20
2022-09-13T09:56:26.991Z,16.20
2022-09-13T09:59:33.554Z,16.30
2022-09-13T10:02:30.417Z,16.50
2022-09-13T10:05:28.331Z,16.60
2022-09-13T10:08:35.691Z,16.80
2022-09-13T10:11:59.984Z,17.10
2022-09-13T10:15:20.213Z,17.20
2022-09-13T10:18:43.909Z,17.20
2022-09-13T10:21:35.811Z,17.20
2022-09-13T10:24:33.053Z,17.20
2022-09-13T10:27:36.408Z,17.20
2022-09-13T10:30:46.499Z,17.40
2022-09-13T10:34:13.787Z,17.80
2022-09-13T10:37:28.971Z,18.10
2022-09-13T10:40:34.136Z,18.40
2022-09-13T10:43:33.579Z,18.40
2022-09-13T10:46:40.334Z,18.70
2022-09-13T10:49:52.935Z,19.20
2022-09-13T10:52:54.953Z,19.40
2022-09-13T10:55:57.550Z,19.50
2022-09-13T10:59:23.976Z,19.50
2022-09-13T11:03:03.887Z,19.40
2022-09-13T11:06:21.919Z,19.50
2022-09-13T11:09:30.339Z,19.80
2022-09-13T11:12:50.265Z,20.10
2022-09-13T11:15:46.984Z,19.90
2022-09-13T11:18:57.885Z,20.20
2022-09-13T11:22:36.671Z,20.20
2022-09-13T11:26:21.385Z,20.10
2022-09-13T11:29:37.727Z,20.10
2022-09-13T11:32:50.017Z,20.20
2022-09-13T11:36:22.073Z,20.10
2022-09-13T11:39:39.278Z,19.90
2022-09-13T11:42:45.842Z,20.10
2022-09-13T11:46:10.749Z,20.10
2022-09-13T11:50:07.182Z,20.60
2022-09-13T11:53:46.063Z,20.50
2022-09-13T11:56:49.808Z,20.50
2022-09-13T11:59:59.183Z,20.40
2022-09-13T12:03:30.225Z,20.70
2022-09-13T12:06:48.969Z,21.00
2022-09-13T12:09:59.461Z,21.00
2022-09-13T12:12:58.541Z,21.00
2022-09-13T12:16:05.127Z,21.10
2022-09-13T12:19:27.476Z,21.10
2022-09-13T12:22:30.865Z,21.50
2022-09-13T12:25:45.337Z,21.40
2022-09-13T12:28:57.274Z,21.40
2022-09-13T12:32:02.165Z,21.30
2022-09-13T12:35:19.559Z,21.50
2022-09-13T12:39:00.548Z,21.40
2022-09-13T12:42:51.093Z,21.20
2022-09-13T12:46:45.584Z,21.30
2022-09-13T12:50:41.417Z,21.10
2022-09-13T12:54:00.076Z,21.30
2022-09-13T12:58:05.371Z,21.50
2022-09-13T13:01:24.469Z,21.40
2022-09-13T13:04:36.586Z,21.40
2022-09-13T13:07:37.930Z,21.50
2022-09-13T13:10:37.946Z,21.60
2022-09-13T13:13:44.778Z,21.90
2022-09-13T13:16:41.653Z,22.20
2022-09-13T13:19:39.809Z,22.50
2022-09-13T13:22:42.674Z,22.70
2022-09-13T13:26:11.813Z,22.50
2022-09-13T13:29:30.116Z,22.50
2022-09-13T13:32:27.139Z,22.50
2022-09-13T13:35:34.632Z,22.50
2022-09-13T13:38:41.217Z,22.60
2022-09-13T13:42:10.399Z,22.70
2022-09-13T13:45:19.174Z,22.80
2022-09-13T13:48:15.992Z,22.80
2022-09-13T13:51:27.664Z,23.10
2022-09-13T13:54:50.349Z,22.90
2022-09-13T13:58:07.859Z,23.20
2022-09-13T14:01:04.830Z,23.00
2022-09-13T14:04:50.097Z,22.90
2022-09-13T14:08:26.704Z,23.70
2022-09-13T14:11:58.106Z,23.70
2022-09-13T14:15:31.761Z,23.80
2022-09-13T14:19:07.373Z,23.90
2022-09-13T14:22:25.507Z,23.70
2022-09-13T14:25:25.236Z,23.80
2022-09-13T14:28:23.547Z,23.70
2022-09-13T14:31:20.671Z,23.70
2022-09-13T14:34:31.019Z,23.60
2022-09-13T14:37:35.404Z,23.60
2022-09-13T14:40:32.340Z,23.70
2022-09-13T14:43:30.997Z,23.40
2022-09-13T14:46:38.510Z,23.20
2022-09-13T14:49:43.680Z,23.30
2022-09-13T14:52:58.365Z,23.00
2022-09-13T14:56:19.363Z,23.70
2022-09-13T14:59:42.141Z,23.80
2022-09-13T15:02:40.330Z,23.60
2022-09-13T15:05:37.365Z,23.20
2022-09-13T15:08:34.023Z,23.10
2022-09-13T15:11:36.716Z,23.10
2022-09-13T15:14:39.586Z,23.00
2022-09-13T15:17:59.121Z,22.90
2022-09-13T15:20:59.638Z,22.80
2022-09-13T15:23:56.437Z,22.60
2022-09-13T15:27:16.473Z,22.70
2022-09-13T15:30:41.302Z,22.80
2022-09-13T15:33:38.419Z,22.80
2022-09-13T15:36:35.266Z,22.80
2022-09-13T15:39:52.881Z,22.50
2022-09-13T15:42:52.045Z,22.70
2022-09-13T15:45:49.034Z,22.50
2022-09-13T15:49:18.345Z,22.50
2022-09-13T15:52:15.414Z,22.70
2022-09-13T15:55:12.489Z,22.70
2022-09-13T15:58:10.529Z,22.50
2022-09-13T16:01:07.382Z,22.70
2022-09-13T16:04:04.592Z,22.50
2022-09-13T16:07:01.422Z,22.40
2022-09-13T16:09:58.662Z,22.40
2022-09-13T16:12:55.853Z,22.30
2022-09-13T16:15:57.094Z,22.20
2022-09-13T16:18:54.551Z,22.10
2022-09-13T16:21:51.374Z,22.10
2022-09-13T16:24:48.487Z,21.80
2022-09-13T16:27:46.146Z,22.10
2022-09-13T16:30:42.973Z,21.90
2022-09-13T16:33:39.787Z,21.70
2022-09-13T16:36:36.865Z,21.70
2022-09-13T16:39:33.674Z,21.80
2022-09-13T16:42:30.633Z,21.70
2022-09-13T16:45:27.537Z,21.50
2022-09-13T16:48:24.743Z,21.50
2022-09-13T16:51:22.333Z,21.20
2022-09-13T16:54:19.170Z,21.00
2022-09-13T16:57:16.242Z,20.80
2022-09-13T17:00:14.035Z,20.40
2022-09-13T17:03:10.976Z,20.30
2022-09-13T17:06:12.976Z,20.20
2022-09-13T17:09:10.136Z,20.00
2022-09-13T17:12:13.848Z,20.20
2022-09-13T17:15:11.316Z,20.30
2022-09-13T17:18:08.849Z,20.30
2022-09-13T17:21:05.815Z,20.00
2022-09-13T17:24:03.741Z,20.00
2022-09-13T17:27:00.694Z,19.70
2022-09-13T17:29:57.539Z,19.40
2022-09-13T17:32:54.336Z,19.20
2022-09-13T17:36:21.172Z,19.00
2022-09-13T17:39:19.220Z,18.90
2022-09-13T17:42:18.117Z,18.80
2022-09-13T17:45:18.160Z,18.70
2022-09-13T17:48:14.959Z,18.80
2022-09-13T17:51:23.859Z,18.60
2022-09-13T17:54:20.675Z,18.70
2022-09-13T17:57:17.495Z,18.50
2022-09-13T18:00:14.628Z,18.30
2022-09-13T18:03:11.598Z,18.10
2022-09-13T18:06:10.325Z,18.00
2022-09-13T18:09:07.373Z,18.00
2022-09-13T18:12:04.264Z,18.00
2022-09-13T18:15:01.795Z,17.70
2022-09-13T18:17:58.642Z,17.70
2022-09-13T18:20:57.090Z,17.70
2022-09-13T18:23:58.327Z,17.70
2022-09-13T18:26:55.168Z,17.80
2022-09-13T18:29:51.971Z,17.60
2022-09-13T18:32:48.782Z,17.60
2022-09-13T18:35:54.412Z,17.50
2022-09-13T18:38:53.148Z,17.40
2022-09-13T18:41:50.081Z,17.40
2022-09-13T18:44:47.001Z,17.40
2022-09-13T18:47:43.804Z,17.30
2022-09-13T18:50:42.540Z,17.30
2022-09-13T18:53:39.960Z,17.20
2022-09-13T18:56:36.908Z,17.20
2022-09-13T18:59:33.797Z,17.20
2022-09-13T19:02:31.360Z,17.10
2022-09-13T19:05:28.370Z,17.00
2022-09-13T19:08:25.164Z,17.00
2022-09-13T19:11:45.287Z,17.00
2022-09-13T19:14:40.991Z,16.90
2022-09-13T19:17:37.791Z,16.90
2022-09-13T19:20:34.928Z,16.80
2022-09-13T19:23:55.618Z,16.80
2022-09-13T19:26:51.969Z,16.80
2022-09-13T19:29:48.970Z,16.80
2022-09-13T19:32:45.764Z,16.80
2022-09-13T19:35:42.566Z,16.70
2022-09-13T19:38:39.725Z,16.70
2022-09-13T19:41:38.068Z,16.70
2022-09-13T19:44:34.909Z,16.80
2022-09-13T19:50:49.018Z,16.70
2022-09-13T19:53:56.828Z,16.70
2022-09-13T19:56:53.983Z,16.50
2022-09-13T19:59:50.829Z,16.50
2022-09-13T20:02:48.903Z,16.60
2022-09-13T20:05:45.719Z,16.60
2022-09-13T20:08:42.604Z,16.50
2022-09-13T20:11:42.635Z,16.50
2022-09-13T20:14:39.825Z,16.40
2022-09-13T20:17:38.002Z,16.40
2022-09-13T20:20:35.656Z,16.40
2022-09-13T20:23:34.452Z,16.30
2022-09-13T20:26:35.736Z,16.30
2022-09-13T20:29:32.777Z,16.40
2022-09-13T20:32:29.575Z,16.30
2022-09-13T20:35:26.999Z,16.30
2022-09-13T20:38:23.833Z,16.20
2022-09-13T20:41:21.523Z,16.20
2022-09-13T20:44:18.392Z,16.20
2022-09-13T20:47:15.204Z,16.20
2022-09-13T20:50:12.089Z,16.20
2022-09-13T20:53:08.913Z,16.20
2022-09-13T20:56:14.523Z,16.10
2022-09-13T20:59:11.425Z,16.00
2022-09-13T21:02:09.316Z,16.00
2022-09-13T21:05:06.637Z,16.00
2022-09-13T21:08:23.025Z,15.90
2022-09-13T21:11:25.239Z,16.00
2022-09-13T21:14:22.216Z,15.80
2022-09-13T21:17:20.149Z,15.70
2022-09-13T21:20:16.985Z,15.50
2022-09-13T21:23:13.799Z,15.70
2022-09-13T21:26:18.217Z,15.80
2022-09-13T21:29:15.080Z,15.70
2022-09-13T21:32:11.892Z,15.70
2022-09-13T21:35:09.260Z,15.60
2022-09-13T21:38:06.077Z,15.70
2022-09-13T21:41:07.085Z,15.70
2022-09-13T21:44:04.268Z,15.60
2022-09-13T21:47:01.109Z,15.70
2022-09-13T21:49:57.907Z,15.80
2022-09-13T21:52:54.956Z,15.90
2022-09-13T21:55:51.757Z,15.80
2022-09-13T21:58:51.633Z,15.70
2022-09-13T22:01:51.414Z,15.70
2022-09-13T22:04:48.317Z,15.70
2022-09-13T22:07:45.134Z,15.80
2022-09-13T22:10:41.938Z,15.80
2022-09-13T22:13:49.984Z,15.60
2022-09-13T22:16:46.975Z,15.70
2022-09-13T22:19:43.824Z,15.70
2022-09-13T22:22:40.646Z,15.70
2022-09-13T22:25:42.165Z,15.70
2022-09-13T22:28:39.222Z,15.70
2022-09-13T22:31:40.289Z,15.60
2022-09-13T22:34:37.130Z,15.60
2022-09-13T22:37:33.953Z,15.60
2022-09-13T22:40:30.950Z,15.70
2022-09-13T22:43:28.294Z,15.70
2022-09-13T22:46:37.853Z,15.70
2022-09-13T22:49:34.632Z,15.70
2022-09-13T22:52:31.632Z,15.70
2022-09-13T22:55:28.431Z,15.70
2022-09-13T22:58:25.365Z,15.60
2022-09-13T23:01:23.218Z,15.80
2022-09-13T23:04:20.154Z,15.80
2022-09-13T23:07:16.960Z,15.70
2022-09-13T23:10:13.770Z,15.70
2022-09-13T23:13:10.582Z,15.60
2022-09-13T23:16:13.043Z,15.60
2022-09-13T23:19:12.953Z,15.60
2022-09-13T23:22:10.056Z,15.60
2022-09-13T23:25:07.860Z,15.60
2022-09-13T23:28:04.673Z,15.50
2022-09-13T23:31:18.965Z,15.50
2022-09-13T23:34:17.679Z,15.60
2022-09-13T23:37:14.532Z,15.50
2022-09-13T23:40:11.485Z,15.50
2022-09-13T23:43:08.375Z,15.50
2022-09-13T23:46:05.825Z,15.40
2022-09-13T23:49:02.695Z,15.50
2022-09-13T23:51:59.516Z,15.50
2022-09-13T23:54:57.106Z,15.50
2022-09-13T23:57:53.917Z,15.40
